KBNO

Burns Municipal Airport

Burns, Oregon, USA
METAR KBNO 220953Z AUTO 27006KT 10SM CLR 07/06 A2996 RMK AO2 SLP123 T00720061
Observed Flight Rules
May-22 @ 09:53 UTC (20 minutes ago) Visual Flight Rules
Wind Visibility Clouds
270° at 6 knots 10 miles
  • Clear skies
Temperatures Readings
Current 7°C / 45°F
Dewpoint 6°C / 43°F
Humidity 93%
Altimeter 29.96" Hg
Pressure 1012.3 hPa
Elevation 1264
METAR KBNO 220953Z AUTO 27006KT 10SM CLR 07/06 A2996 RMK AO2 SLP123 T00720061
Observed Flight Rules
May-22 @ 09:53 UTC
(20 minutes ago)
VFR
Wind Visibility
270° at 6 knots 10 miles
Clouds
  • Clear skies
Temperature Dewpoint
7°C / 45°F 6°C / 43°F
Humidity Altimeter Pressure
93% 29.96" Hg 1012.3 hPa